createdAt,value
2023-04-19T00:02:31.530Z,12.13
2023-04-19T00:05:22.490Z,12.16
2023-04-19T00:08:13.330Z,12.11
2023-04-19T00:11:02.567Z,12.03
2023-04-19T00:13:51.840Z,11.97
2023-04-19T00:16:41.235Z,12.03
2023-04-19T00:19:30.601Z,11.97
2023-04-19T00:22:19.861Z,11.95
2023-04-19T00:25:10.897Z,11.94
2023-04-19T00:28:00.169Z,11.96
2023-04-19T00:30:49.567Z,11.83
2023-04-19T00:33:38.914Z,11.83
2023-04-19T00:36:28.307Z,11.69
2023-04-19T00:39:17.735Z,11.72
2023-04-19T00:42:08.745Z,11.61
2023-04-19T00:44:58.234Z,11.61
2023-04-19T00:47:47.585Z,11.67
2023-04-19T00:50:37.301Z,11.62
2023-04-19T00:53:26.667Z,11.54
2023-04-19T00:56:16.462Z,11.61
2023-04-19T00:59:07.925Z,11.58
2023-04-19T01:01:58.209Z,11.51
2023-04-19T01:04:47.970Z,11.43
2023-04-19T01:07:37.406Z,11.35
2023-04-19T01:10:26.960Z,11.30
2023-04-19T01:13:16.521Z,11.38
2023-04-19T01:16:08.866Z,11.28
2023-04-19T01:18:58.103Z,11.35
2023-04-19T01:21:49.095Z,11.23
2023-04-19T01:24:39.820Z,11.32
2023-04-19T01:27:29.276Z,11.33
2023-04-19T01:30:20.315Z,11.30
2023-04-19T01:33:12.238Z,11.16
2023-04-19T01:36:01.587Z,11.26
2023-04-19T01:38:51.979Z,11.28
2023-04-19T01:41:43.041Z,11.25
2023-04-19T01:44:32.837Z,11.20
2023-04-19T01:47:25.212Z,11.20
2023-04-19T01:50:14.574Z,11.14
2023-04-19T01:53:04.736Z,11.12
2023-04-19T01:55:56.453Z,11.13
2023-04-19T01:58:47.508Z,11.05
2023-04-19T02:01:37.116Z,11.07
2023-04-19T02:04:26.480Z,11.06
2023-04-19T02:07:15.839Z,10.97
2023-04-19T02:10:06.110Z,10.98
2023-04-19T02:12:55.436Z,10.86
2023-04-19T02:15:46.133Z,10.96
2023-04-19T02:18:38.474Z,10.87
2023-04-19T02:21:27.786Z,10.86
2023-04-19T02:24:17.248Z,10.77
2023-04-19T02:27:06.855Z,10.87
2023-04-19T02:29:56.528Z,10.84
2023-04-19T02:32:49.586Z,10.79
2023-04-19T02:35:39.172Z,10.65
2023-04-19T02:38:28.490Z,10.77
2023-04-19T02:41:17.720Z,10.69
2023-04-19T02:44:07.490Z,10.76
2023-04-19T02:46:57.741Z,10.72
2023-04-19T02:49:48.484Z,10.69
2023-04-19T02:52:40.460Z,10.63
2023-04-19T02:55:30.415Z,10.67
2023-04-19T02:58:35.042Z,10.64
2023-04-19T03:01:27.665Z,10.57
2023-04-19T03:04:17.438Z,10.56
2023-04-19T03:07:11.175Z,10.56
2023-04-19T03:10:02.077Z,10.60
2023-04-19T03:12:53.643Z,10.39
2023-04-19T03:15:42.914Z,10.48
2023-04-19T03:18:33.517Z,10.53
2023-04-19T03:21:27.606Z,10.54
2023-04-19T03:24:21.330Z,10.52
2023-04-19T03:27:13.642Z,10.54
2023-04-19T03:30:04.424Z,10.50
2023-04-19T03:32:54.691Z,10.45
2023-04-19T03:35:45.770Z,10.47
2023-04-19T03:38:35.048Z,10.52
2023-04-19T03:41:28.304Z,10.43
2023-04-19T03:44:38.069Z,10.50
2023-04-19T03:47:29.769Z,10.48
2023-04-19T03:50:21.989Z,10.32
2023-04-19T03:53:15.066Z,10.43
2023-04-19T03:56:04.865Z,10.35
2023-04-19T03:58:57.317Z,10.20
2023-04-19T04:01:47.322Z,10.43
2023-04-19T04:04:36.992Z,10.46
2023-04-19T04:07:26.471Z,10.45
2023-04-19T04:10:16.713Z,10.47
2023-04-19T04:13:06.488Z,10.32
2023-04-19T04:16:11.642Z,10.31
2023-04-19T04:19:01.839Z,10.41
2023-04-19T04:21:54.246Z,10.44
2023-04-19T04:24:44.459Z,10.46
2023-04-19T04:27:46.724Z,10.51
2023-04-19T04:30:41.969Z,10.65
2023-04-19T04:33:34.765Z,10.69
2023-04-19T04:36:26.063Z,10.82
2023-04-19T04:39:15.593Z,10.87
2023-04-19T04:42:05.573Z,10.91
2023-04-19T04:44:58.099Z,10.92
2023-04-19T04:47:48.654Z,10.75
2023-04-19T04:50:40.190Z,10.82
2023-04-19T04:53:29.721Z,10.77
2023-04-19T04:56:19.884Z,10.77
2023-04-19T04:59:09.421Z,10.73
2023-04-19T05:02:02.032Z,10.78
2023-04-19T05:04:51.872Z,10.72
2023-04-19T05:07:43.192Z,10.73
2023-04-19T05:10:32.651Z,10.80
2023-04-19T05:13:22.421Z,10.70
2023-04-19T05:16:13.327Z,10.82
2023-04-19T05:19:05.724Z,10.83
2023-04-19T05:22:00.825Z,10.84
2023-04-19T05:24:51.457Z,10.84
2023-04-19T05:27:40.893Z,10.90
2023-04-19T05:30:31.247Z,10.86
2023-04-19T05:33:20.714Z,10.95
2023-04-19T05:36:12.442Z,10.97
2023-04-19T05:39:01.750Z,10.95
2023-04-19T05:41:52.524Z,10.97
2023-04-19T05:44:41.718Z,10.93
2023-04-19T05:47:31.163Z,10.91
2023-04-19T05:50:47.075Z,10.92
2023-04-19T05:53:57.425Z,10.93
2023-04-19T05:56:47.974Z,10.81
2023-04-19T05:59:38.819Z,10.82
2023-04-19T06:02:28.517Z,10.80
2023-04-19T06:05:18.156Z,10.83
2023-04-19T06:08:09.577Z,11.00
2023-04-19T06:11:02.481Z,10.99
2023-04-19T06:14:01.073Z,11.05
2023-04-19T06:16:52.693Z,11.06
2023-04-19T06:19:42.518Z,11.08
2023-04-19T06:22:31.754Z,11.10
2023-04-19T06:25:21.328Z,11.19
2023-04-19T06:28:11.076Z,11.26
2023-04-19T06:31:00.656Z,11.18
2023-04-19T06:33:51.333Z,11.07
2023-04-19T06:36:40.849Z,11.21
2023-04-19T06:39:30.066Z,11.19
2023-04-19T06:42:20.219Z,11.23
2023-04-19T06:45:11.463Z,11.25
2023-04-19T06:48:01.017Z,11.31
2023-04-19T06:50:51.871Z,11.30
2023-04-19T06:53:41.143Z,11.38
2023-04-19T06:56:45.846Z,11.36
2023-04-19T06:59:38.805Z,11.44
2023-04-19T07:02:28.457Z,11.42
2023-04-19T07:05:17.992Z,11.44
2023-04-19T07:08:08.721Z,11.29
2023-04-19T07:10:58.178Z,11.45
2023-04-19T07:13:47.427Z,11.45
2023-04-19T07:16:36.895Z,11.56
2023-04-19T07:19:26.427Z,11.50
2023-04-19T07:22:15.826Z,11.59
2023-04-19T07:25:07.461Z,11.46
2023-04-19T07:27:57.106Z,11.38
2023-04-19T07:30:46.705Z,11.43
2023-04-19T07:33:36.153Z,11.36
2023-04-19T07:36:25.429Z,11.55
2023-04-19T07:39:14.612Z,11.51
2023-04-19T07:42:05.431Z,11.56
2023-04-19T07:44:54.671Z,11.60
2023-04-19T07:47:44.201Z,11.65
2023-04-19T07:50:33.493Z,11.75
2023-04-19T07:53:22.871Z,11.75
2023-04-19T07:56:13.387Z,11.92
2023-04-19T07:59:08.197Z,11.98
2023-04-19T08:01:58.959Z,11.86
2023-04-19T08:04:50.013Z,12.00
2023-04-19T08:07:39.965Z,12.01
2023-04-19T08:10:30.626Z,11.96
2023-04-19T08:13:19.846Z,12.00
2023-04-19T08:19:02.707Z,12.04
2023-04-19T08:21:51.942Z,12.03
2023-04-19T08:24:41.430Z,12.01
2023-04-19T08:27:30.706Z,12.09
2023-04-19T08:30:20.468Z,12.13
2023-04-19T08:33:11.962Z,12.22
2023-04-19T08:36:01.254Z,12.33
2023-04-19T08:39:01.970Z,12.45
2023-04-19T08:42:07.051Z,12.46
2023-04-19T08:48:01.761Z,12.48
2023-04-19T08:51:04.303Z,12.36
2023-04-19T08:53:57.689Z,12.37
2023-04-19T08:56:47.081Z,12.31
2023-04-19T08:59:36.758Z,12.21
2023-04-19T09:02:26.703Z,12.37
2023-04-19T09:05:19.150Z,12.51
2023-04-19T09:08:26.836Z,12.57
2023-04-19T09:11:16.212Z,12.58
2023-04-19T09:14:10.782Z,12.48
2023-04-19T09:17:17.631Z,12.38
2023-04-19T09:20:08.991Z,12.38
2023-04-19T09:23:06.134Z,12.33
2023-04-19T09:26:22.310Z,12.50
2023-04-19T09:29:12.114Z,12.50
2023-04-19T09:32:02.599Z,12.44
2023-04-19T09:34:57.780Z,12.48
2023-04-19T09:40:53.469Z,12.61
2023-04-19T09:46:37.803Z,12.60
2023-04-19T09:49:41.718Z,12.70
2023-04-19T09:52:37.668Z,12.68
2023-04-19T09:55:29.891Z,12.76
2023-04-19T09:58:22.666Z,12.76
2023-04-19T10:01:16.200Z,12.81
2023-04-19T10:04:23.902Z,12.74
2023-04-19T10:10:19.520Z,12.85
2023-04-19T10:16:18.088Z,12.66
2023-04-19T10:19:13.551Z,12.66
2023-04-19T10:22:05.517Z,12.71
2023-04-19T10:25:12.965Z,12.80
2023-04-19T10:28:02.434Z,12.89
2023-04-19T10:30:58.586Z,12.82
2023-04-19T10:33:49.095Z,12.95
2023-04-19T10:36:40.178Z,12.95
2023-04-19T10:39:42.969Z,12.87
2023-04-19T10:43:16.548Z,13.04
2023-04-19T10:46:11.080Z,13.09
2023-04-19T10:49:01.801Z,13.14
2023-04-19T10:51:55.009Z,13.07
2023-04-19T10:54:44.309Z,13.14
2023-04-19T10:58:04.283Z,12.98
2023-04-19T11:01:18.737Z,13.00
2023-04-19T11:04:10.583Z,12.91
2023-04-19T11:07:07.378Z,12.84
2023-04-19T11:09:56.650Z,12.85
2023-04-19T11:12:46.426Z,12.86
2023-04-19T11:15:35.640Z,12.78
2023-04-19T11:18:30.791Z,12.78
2023-04-19T11:21:20.166Z,12.54
2023-04-19T11:24:11.867Z,12.42
2023-04-19T11:27:01.247Z,12.50
2023-04-19T11:29:50.529Z,12.50
2023-04-19T11:32:45.929Z,12.62
2023-04-19T11:35:36.086Z,12.74
2023-04-19T11:38:25.340Z,12.70
2023-04-19T11:41:16.073Z,12.66
2023-04-19T11:44:05.410Z,12.77
2023-04-19T11:47:03.026Z,12.84
2023-04-19T11:49:52.456Z,12.79
2023-04-19T11:52:41.829Z,13.04
2023-04-19T11:55:34.959Z,13.04
2023-04-19T11:58:31.187Z,13.03
2023-04-19T12:01:22.327Z,13.13
2023-04-19T12:04:11.951Z,13.13
2023-04-19T12:07:05.457Z,13.11
2023-04-19T12:09:56.012Z,13.05
2023-04-19T12:12:45.254Z,13.14
2023-04-19T12:15:46.142Z,13.19
2023-04-19T12:18:46.153Z,13.25
2023-04-19T12:21:35.483Z,13.43
2023-04-19T12:24:24.689Z,13.48
2023-04-19T12:27:18.195Z,13.64
2023-04-19T12:30:09.974Z,13.58
2023-04-19T12:33:00.899Z,13.73
2023-04-19T12:35:50.161Z,13.96
2023-04-19T12:38:39.474Z,14.46
2023-04-19T12:41:28.679Z,14.81
2023-04-19T12:44:18.316Z,15.05
2023-04-19T12:47:08.019Z,15.57
2023-04-19T12:49:59.150Z,16.29
2023-04-19T12:52:48.466Z,16.64
2023-04-19T12:55:37.863Z,17.09
2023-04-19T12:58:28.305Z,16.98
2023-04-19T13:01:17.835Z,17.41
2023-04-19T13:04:11.605Z,17.30
2023-04-19T13:07:03.093Z,17.02
2023-04-19T13:09:52.715Z,16.74
2023-04-19T13:12:42.898Z,16.38
2023-04-19T13:15:32.259Z,16.31
2023-04-19T13:18:22.418Z,16.31
2023-04-19T13:21:11.665Z,16.08
2023-04-19T13:24:02.300Z,16.01
2023-04-19T13:26:51.687Z,16.06
2023-04-19T13:29:41.050Z,15.78
2023-04-19T13:32:30.910Z,15.57
2023-04-19T13:35:20.239Z,15.33
2023-04-19T13:38:09.778Z,15.22
2023-04-19T13:41:01.184Z,15.04
2023-04-19T13:43:50.576Z,14.85
2023-04-19T13:46:39.933Z,14.67
2023-04-19T13:49:29.065Z,14.65
2023-04-19T13:52:18.307Z,14.49
2023-04-19T13:55:08.075Z,14.37
2023-04-19T13:57:58.820Z,14.36
2023-04-19T14:00:49.179Z,14.32
2023-04-19T14:03:38.651Z,14.34
2023-04-19T14:06:28.067Z,14.46
2023-04-19T14:09:17.662Z,14.44
2023-04-19T14:12:09.120Z,14.34
2023-04-19T14:14:59.909Z,14.37
2023-04-19T14:17:49.364Z,14.24
2023-04-19T14:20:38.772Z,14.40
2023-04-19T14:23:28.875Z,14.36
2023-04-19T14:26:18.270Z,14.20
2023-04-19T14:29:07.501Z,14.21
2023-04-19T14:32:05.153Z,14.32
2023-04-19T14:35:00.693Z,14.30
2023-04-19T14:37:49.917Z,14.43
2023-04-19T14:40:39.172Z,14.59
2023-04-19T14:43:28.512Z,14.60
2023-04-19T14:46:17.854Z,14.89
2023-04-19T14:49:08.539Z,15.46
2023-04-19T14:51:57.834Z,16.16
2023-04-19T14:54:47.192Z,16.49
2023-04-19T14:57:36.455Z,16.73
2023-04-19T15:00:26.081Z,16.80
2023-04-19T15:03:16.188Z,16.74
2023-04-19T15:06:08.192Z,16.43
2023-04-19T15:08:57.432Z,16.06
2023-04-19T15:11:47.019Z,15.86
2023-04-19T15:14:36.553Z,15.59
2023-04-19T15:17:26.038Z,15.47
2023-04-19T15:20:15.626Z,15.33
2023-04-19T15:23:06.295Z,15.13
2023-04-19T15:25:56.302Z,15.03
2023-04-19T15:28:45.726Z,15.07
2023-04-19T15:31:35.147Z,15.03
2023-04-19T15:34:25.551Z,15.09
2023-04-19T15:37:15.061Z,15.09
2023-04-19T15:40:07.479Z,15.05
2023-04-19T15:42:56.852Z,14.96
2023-04-19T15:45:46.133Z,14.88
2023-04-19T15:48:35.403Z,14.83
2023-04-19T15:51:24.656Z,14.87
2023-04-19T15:54:15.963Z,14.78
2023-04-19T15:57:06.625Z,14.81
2023-04-19T15:59:55.913Z,14.72
2023-04-19T16:02:45.626Z,14.65
2023-04-19T16:05:35.973Z,14.79
2023-04-19T16:08:25.261Z,14.77
2023-04-19T16:11:14.574Z,14.82
2023-04-19T16:14:05.444Z,14.81
2023-04-19T16:16:54.887Z,14.87
2023-04-19T16:19:44.237Z,14.96
2023-04-19T16:22:33.907Z,15.07
2023-04-19T16:25:23.205Z,15.15
2023-04-19T16:28:12.473Z,15.23
2023-04-19T16:31:03.181Z,15.28
2023-04-19T16:33:52.461Z,15.28
2023-04-19T16:36:44.856Z,15.43
2023-04-19T16:39:34.179Z,15.44
2023-04-19T16:42:23.407Z,15.45
2023-04-19T16:45:12.823Z,15.50
2023-04-19T16:48:03.484Z,15.38
2023-04-19T16:50:52.960Z,15.40
2023-04-19T16:53:42.905Z,15.37
2023-04-19T16:56:32.188Z,15.32
2023-04-19T16:59:21.464Z,15.12
2023-04-19T17:02:11.297Z,15.25
2023-04-19T17:05:02.506Z,15.17
2023-04-19T17:07:53.804Z,15.15
2023-04-19T17:10:44.678Z,15.06
2023-04-19T17:13:33.968Z,15.06
2023-04-19T17:16:23.292Z,15.10
2023-04-19T17:19:12.529Z,15.09
2023-04-19T17:22:05.825Z,15.03
2023-04-19T17:24:57.567Z,15.05
2023-04-19T17:27:46.788Z,15.01
2023-04-19T17:30:36.069Z,15.06
2023-04-19T17:33:25.368Z,15.00
2023-04-19T17:36:14.622Z,15.09
2023-04-19T17:39:06.759Z,15.06
2023-04-19T17:41:57.089Z,15.07
2023-04-19T17:44:47.279Z,15.01
2023-04-19T17:47:36.533Z,14.99
2023-04-19T17:50:26.682Z,14.86
2023-04-19T17:53:15.984Z,14.86
2023-04-19T17:56:07.048Z,14.84
2023-04-19T17:58:56.261Z,14.89
2023-04-19T18:01:45.693Z,14.85
2023-04-19T18:04:35.029Z,14.81
2023-04-19T18:07:24.326Z,14.92
2023-04-19T18:10:13.769Z,15.00
2023-04-19T18:13:04.446Z,15.01
2023-04-19T18:15:53.713Z,14.99
2023-04-19T18:18:42.977Z,14.92
2023-04-19T18:21:33.634Z,14.85
2023-04-19T18:24:22.864Z,14.79
2023-04-19T18:27:12.685Z,14.81
2023-04-19T18:30:04.072Z,14.69
2023-04-19T18:32:53.495Z,14.66
2023-04-19T18:35:42.741Z,14.58
2023-04-19T18:38:32.130Z,14.67
2023-04-19T18:41:21.647Z,14.75
2023-04-19T18:44:29.971Z,14.77
2023-04-19T18:47:21.591Z,14.69
2023-04-19T18:50:12.232Z,14.65
2023-04-19T18:53:01.496Z,14.71
2023-04-19T18:55:51.932Z,14.76
2023-04-19T18:58:41.284Z,14.76
2023-04-19T19:01:31.714Z,14.76
2023-04-19T19:04:33.949Z,14.73
2023-04-19T19:07:36.647Z,14.74
2023-04-19T19:13:23.614Z,14.73
2023-04-19T19:16:12.892Z,14.67
2023-04-19T19:19:02.237Z,14.64
2023-04-19T19:21:52.855Z,14.59
2023-04-19T19:24:43.483Z,14.64
2023-04-19T19:27:32.903Z,14.51
2023-04-19T19:30:25.648Z,14.47
2023-04-19T19:33:15.238Z,14.48
2023-04-19T19:36:04.638Z,14.46
2023-04-19T19:38:55.262Z,14.43
2023-04-19T19:44:37.165Z,14.36
2023-04-19T19:47:30.765Z,14.20
2023-04-19T19:53:12.553Z,14.25
2023-04-19T19:56:04.296Z,14.23
2023-04-19T19:58:54.357Z,14.27
2023-04-19T20:01:44.351Z,14.18
2023-04-19T20:04:35.041Z,14.12
2023-04-19T20:07:42.360Z,14.15
2023-04-19T20:10:34.092Z,14.13
2023-04-19T20:13:24.711Z,13.96
2023-04-19T20:16:14.873Z,14.09
2023-04-19T20:19:09.813Z,14.06
2023-04-19T20:22:00.445Z,13.99
2023-04-19T20:24:49.991Z,13.92
2023-04-19T20:27:40.110Z,13.87
2023-04-19T20:30:30.755Z,13.89
2023-04-19T20:33:20.069Z,13.68
2023-04-19T20:36:09.984Z,13.71
2023-04-19T20:39:01.837Z,13.68
2023-04-19T20:41:51.487Z,13.76
2023-04-19T20:44:41.527Z,13.78
2023-04-19T20:47:32.215Z,13.68
2023-04-19T20:50:21.642Z,13.71
2023-04-19T20:53:10.960Z,13.67
2023-04-19T20:56:01.427Z,13.58
2023-04-19T20:58:51.041Z,13.67
2023-04-19T21:01:40.408Z,13.60
2023-04-19T21:04:31.239Z,13.52
2023-04-19T21:07:20.634Z,13.56
2023-04-19T21:10:11.480Z,13.58
2023-04-19T21:13:01.231Z,13.60
2023-04-19T21:15:50.503Z,13.55
2023-04-19T21:18:39.870Z,13.61
2023-04-19T21:21:32.464Z,13.46
2023-04-19T21:24:21.956Z,13.47
2023-04-19T21:27:11.198Z,13.43
2023-04-19T21:30:00.455Z,13.34
2023-04-19T21:32:49.779Z,13.39
2023-04-19T21:35:39.055Z,13.33
2023-04-19T21:38:29.906Z,13.33
2023-04-19T21:41:19.142Z,13.22
2023-04-19T21:44:08.838Z,13.26
2023-04-19T21:46:58.155Z,13.25
2023-04-19T21:49:48.125Z,13.26
2023-04-19T21:52:37.443Z,13.28
2023-04-19T21:55:28.209Z,13.21
2023-04-19T21:58:18.119Z,13.15
2023-04-19T22:01:07.481Z,13.07
2023-04-19T22:03:57.284Z,13.16
2023-04-19T22:06:47.167Z,13.17
2023-04-19T22:09:37.276Z,13.21
2023-04-19T22:12:28.789Z,13.21
2023-04-19T22:15:18.445Z,13.24
2023-04-19T22:18:08.775Z,13.09
2023-04-19T22:20:58.135Z,13.19
2023-04-19T22:23:47.615Z,13.17
2023-04-19T22:26:37.401Z,13.04
2023-04-19T22:29:28.187Z,13.11
2023-04-19T22:32:17.464Z,13.13
2023-04-19T22:35:07.591Z,13.07
2023-04-19T22:38:00.358Z,13.04
2023-04-19T22:40:52.214Z,13.05
2023-04-19T22:43:41.684Z,13.01
2023-04-19T22:49:22.990Z,12.86
2023-04-19T22:52:12.878Z,12.85
2023-04-19T22:55:02.189Z,12.75
2023-04-19T22:57:51.413Z,12.77
2023-04-19T23:00:40.640Z,12.72
2023-04-19T23:03:31.336Z,12.64
2023-04-19T23:06:20.647Z,12.56
2023-04-19T23:09:11.057Z,12.49
2023-04-19T23:12:00.716Z,12.43
2023-04-19T23:14:50.660Z,12.37
2023-04-19T23:17:40.657Z,12.31
2023-04-19T23:20:32.206Z,12.30
2023-04-19T23:23:21.443Z,12.31
2023-04-19T23:26:11.760Z,12.26
2023-04-19T23:29:01.097Z,12.18
2023-04-19T23:31:50.885Z,12.19
2023-04-19T23:34:40.210Z,12.13
2023-04-19T23:37:31.025Z,12.08
2023-04-19T23:40:20.353Z,12.09
2023-04-19T23:43:09.635Z,12.03
2023-04-19T23:45:58.815Z,11.94
2023-04-19T23:48:48.045Z,11.90
2023-04-19T23:51:37.482Z,11.93
2023-04-19T23:54:28.152Z,12.02
2023-04-19T23:57:17.481Z,11.96
